Aviation Digital Data Service (ADDS)

Output produced by METARs form (1911 UTC 18 June 2019)
found at http://www.aviationweather.gov/metar/data/
 
K33N 181855Z AUTO 25008KT 10SM 29/23 A2989 RMK A01
KGED 181854Z AUTO 24008KT 10SM CLR 30/22 A2990 RMK AO2 SLP123 T03000222
KILG 181851Z 22009KT 10SM BKN110 27/22 A2987 RMK AO2 SLP113 T02720222
KILG 181730Z 1818/1918 18006KT P6SM BKN018 BKN100 
     FM181900 24005KT P6SM SCT025 BKN050 
     TEMPO 1820/1822 2SM TSRA OVC015CB 
     FM182300 25006KT P6SM OVC045 
     FM190100 25005KT 5SM SHRA VCTS OVC020CB 
     FM190600 20005KT 3SM SHRA BR OVC008 
     FM191500 17003KT 5SM BR BKN015